Ocean King D — V7TV6 — position and weather

sailwx.info

Track history (hours):
 
Tides and Currents Weather Stations Pressure Air Temp Water Temp Dewpoint Dewpoint Depression Visibility Wind Speed Wind Dir Waves Ship Positions

Ocean King D

Last reported at 2015-Apr-17 20:23 UTC. Time now 2015-Apr-18 04:57 UTC.
Position N 46°18' E 031°07'.

Length 190 m; draft 6.3 m.

Type: Cargo ship. MMSI: 538003892.

Date/timePositionNaut miles runAvg speedWind from/ knotsBaromVisibWave heightAir tempDewpointWater temp
2015-Apr-17 20:23N 46°18' E 031°07'0 0.0
2015-Apr-17 18:17N 46°18' E 031°07'0 0.0
2015-Apr-17 17:23N 46°18' E 031°07'0 0.0
2015-Apr-16 23:17N 46°18' E 031°07'0 0.0
2015-Apr-16 22:32N 46°18' E 031°07'0 0.1
2015-Apr-16 21:32N 46°18' E 031°07'0 0.1
2015-Apr-16 20:26N 46°18' E 031°07'0 0.0
2015-Apr-16 10:20N 46°18' E 031°07'0 0.0
2015-Apr-16 08:26N 46°18' E 031°07'0 0.0
2015-Apr-16 06:17N 46°18' E 031°07'2710.0
2015-Apr-16 03:33N 45°51' E 031°12'271 7.9
2015-Apr-14 17:10N 41°32' E 029°19'913.8
2015-Apr-14 16:29N 41°24' E 029°15'2510.5
2015-Apr-14 14:07N 41°01' E 028°60'4 7.6
2015-Apr-14 13:33N 40°57' E 028°59'8 8.1
2015-Apr-14 12:33N 40°52' E 028°51'1210.9
2015-Apr-14 11:24N 40°47' E 028°36'4 1.2
2015-Apr-14 08:20N 40°44' E 028°32'2 0.9
2015-Apr-14 06:24N 40°46' E 028°31'1 0.7
2015-Apr-14 05:28N 40°46' E 028°31'1 0.8
2015-Apr-14 04:28N 40°45' E 028°31'3 2.7
2015-Apr-14 03:13N 40°48' E 028°32'0 0.6
2015-Apr-14 02:28N 40°48' E 028°32'0 0.3
2015-Apr-14 01:33N 40°47' E 028°33'0 0.2
2015-Apr-14 00:33N 40°47' E 028°33'0 0.2
2015-Apr-13 23:33N 40°47' E 028°33'0 0.3
2015-Apr-13 22:33N 40°47' E 028°33'0 0.3
2015-Apr-13 21:31N 40°46' E 028°33'0 0.2
2015-Apr-13 20:25N 40°46' E 028°33'139 9.9
2015-Apr-13 06:22N 39°48' E 025°48'128 6.0
2015-Apr-12 09:09N 37°40' E 025°55'712.3
2015-Apr-12 08:33N 37°33' E 025°53'1312.6
2015-Apr-12 07:33N 37°20' E 025°57'1513.3
2015-Apr-12 06:26N 37°07' E 026°06'2412.7
2015-Apr-12 04:32N 36°48' E 026°24'  
2015-Apr-08 15:21N 31°42' E 031°41'0 0.0
2015-Apr-08 14:27N 31°42' E 031°41'0 0.0
2015-Apr-08 13:10N 31°42' E 031°41'0 0.0
2015-Apr-08 07:21N 31°42' E 031°41'0 0.0
2015-Apr-08 01:24N 31°42' E 031°41'0 0.1
2015-Apr-08 00:34N 31°42' E 031°41'0 0.0
2015-Apr-07 22:06N 31°42' E 031°41'0 0.0
2015-Apr-07 21:30N 31°42' E 031°41'0 0.0
2015-Apr-07 20:28N 31°42' E 031°41'  
Track history (hours):
 
Tides and Currents Weather Stations Pressure Air Temp Water Temp Dewpoint Dewpoint Depression Visibility Wind Speed Wind Dir Waves Ship Positions

Ocean King D

Last reported at 2015-Apr-17 20:23 UTC. Time now 2015-Apr-18 04:57 UTC.
Position N 46°18' E 031°07'.

Length 190 m; draft 6.3 m.

Type: Cargo ship. MMSI: 538003892.

Date/timePositionNaut miles runAvg speedWind from/ knotsBaromVisibWave heightAir tempDewpointWater temp
2015-Apr-17 20:23N 46°18' E 031°07'0 0.0
2015-Apr-17 18:17N 46°18' E 031°07'0 0.0
2015-Apr-17 17:23N 46°18' E 031°07'0 0.0
2015-Apr-16 23:17N 46°18' E 031°07'0 0.0
2015-Apr-16 22:32N 46°18' E 031°07'0 0.1
2015-Apr-16 21:32N 46°18' E 031°07'0 0.1
2015-Apr-16 20:26N 46°18' E 031°07'0 0.0
2015-Apr-16 10:20N 46°18' E 031°07'0 0.0
2015-Apr-16 08:26N 46°18' E 031°07'0 0.0
2015-Apr-16 06:17N 46°18' E 031°07'2710.0
2015-Apr-16 03:33N 45°51' E 031°12'271 7.9
2015-Apr-14 17:10N 41°32' E 029°19'913.8
2015-Apr-14 16:29N 41°24' E 029°15'2510.5
2015-Apr-14 14:07N 41°01' E 028°60'4 7.6
2015-Apr-14 13:33N 40°57' E 028°59'8 8.1
2015-Apr-14 12:33N 40°52' E 028°51'1210.9
2015-Apr-14 11:24N 40°47' E 028°36'4 1.2
2015-Apr-14 08:20N 40°44' E 028°32'2 0.9
2015-Apr-14 06:24N 40°46' E 028°31'1 0.7
2015-Apr-14 05:28N 40°46' E 028°31'1 0.8
2015-Apr-14 04:28N 40°45' E 028°31'3 2.7
2015-Apr-14 03:13N 40°48' E 028°32'0 0.6
2015-Apr-14 02:28N 40°48' E 028°32'0 0.3
2015-Apr-14 01:33N 40°47' E 028°33'0 0.2
2015-Apr-14 00:33N 40°47' E 028°33'0 0.2
2015-Apr-13 23:33N 40°47' E 028°33'0 0.3
2015-Apr-13 22:33N 40°47' E 028°33'0 0.3
2015-Apr-13 21:31N 40°46' E 028°33'0 0.2
2015-Apr-13 20:25N 40°46' E 028°33'139 9.9
2015-Apr-13 06:22N 39°48' E 025°48'128 6.0
2015-Apr-12 09:09N 37°40' E 025°55'712.3
2015-Apr-12 08:33N 37°33' E 025°53'1312.6
2015-Apr-12 07:33N 37°20' E 025°57'1513.3
2015-Apr-12 06:26N 37°07' E 026°06'2412.7
2015-Apr-12 04:32N 36°48' E 026°24'  
2015-Apr-08 15:21N 31°42' E 031°41'0 0.0
2015-Apr-08 14:27N 31°42' E 031°41'0 0.0
2015-Apr-08 13:10N 31°42' E 031°41'0 0.0
2015-Apr-08 07:21N 31°42' E 031°41'0 0.0
2015-Apr-08 01:24N 31°42' E 031°41'0 0.1
2015-Apr-08 00:34N 31°42' E 031°41'0 0.0
2015-Apr-07 22:06N 31°42' E 031°41'0 0.0
2015-Apr-07 21:30N 31°42' E 031°41'0 0.0
2015-Apr-07 20:28N 31°42' E 031°41'  

Dump ship's entire track history